»·PEaware :: N426M KSEA-KLAX

N426M :: KSEA-KLAX

FLIGHT INFORMATION

Flight Status: Arrived
Operator: Privately registered:
United States
More flights under this callsign
Pilot: Bob S. (40)
Aircraft: GATES LEARJET LEARJET 60
(LJ60)
More flights by this aircraft type
Origin: KSEA Seattle-Tacoma Intl
United States
Destination: KLAX Los Angeles Intl
United States
More flights between these airports :: More routes between these airports
Route: +SUMMA7 SUMMA Q9 SMIGE Q9 SUNBE FRA DERBB SADDE6
File this flight plan on PilotEdge
Remarks: EXPECTING RWY24l
Altitude:
(Current/Filed)
35,000ft
Speed:
(Current/Filed)
440kts
Departed: 16-Feb-11 07:13 PM
Arrived: 16-Feb-11 09:12 PM
Distance/Time
Traveled:
829nm/1:58
Distance/Time
To Go:
Arrived

Flight Plot

Page will automatically refresh every two minutes.

Flight plan parsing failed; only flown route is shown


Map Options




Map Legend


Flown Route
Filed Route
Departure Airport
Arrival Airport
Navaid (VOR, NDB)
Fix

Horizontal Profiles

Position Reports

Time Latitude Longitude Heading Altitude Ground
Speed
16-Feb-11 19:11 45.523427 -121.832116 157 35024ft 438kts
16-Feb-11 19:12 45.411385 -121.765981 156 35024ft 438kts
16-Feb-11 19:13 45.306439 -121.689180 138 35030ft 438kts
16-Feb-11 19:14 45.215223 -121.575830 138 35023ft 438kts
16-Feb-11 19:15 45.126173 -121.464870 138 35023ft 438kts
16-Feb-11 19:16 45.028059 -121.366514 160 35030ft 438kts
16-Feb-11 19:17 44.910706 -121.316689 165 35025ft 454kts
16-Feb-11 19:18 44.785146 -121.272879 167 35027ft 474kts
16-Feb-11 19:19 44.656339 -121.228206 168 35028ft 480kts
16-Feb-11 19:20 44.533140 -121.185588 171 34988ft 458kts
16-Feb-11 19:21 44.413195 -121.144445 171 34984ft 433kts
16-Feb-11 19:22 44.299827 -121.105641 170 34988ft 422kts
16-Feb-11 19:23 44.186592 -121.067015 170 34987ft 417kts
16-Feb-11 19:24 44.074608 -121.028963 169 34986ft 415kts
16-Feb-11 19:25 43.962697 -120.991065 169 34982ft 419kts
16-Feb-11 19:26 43.845564 -120.951671 167 34988ft 447kts
16-Feb-11 19:27 43.724812 -120.911089 166 34985ft 448kts
16-Feb-11 19:28 43.604574 -120.870871 166 34984ft 444kts
16-Feb-11 19:29 43.485217 -120.831125 165 34984ft 442kts
16-Feb-11 19:30 43.366046 -120.791606 165 34984ft 440kts
16-Feb-11 19:31 43.249755 -120.753202 165 34983ft 440kts
16-Feb-11 19:32 43.131063 -120.714156 165 34983ft 439kts
16-Feb-11 19:33 43.012107 -120.675179 165 34984ft 439kts
16-Feb-11 19:34 42.892012 -120.635890 168 35027ft 452kts
16-Feb-11 19:35 42.772225 -120.597009 170 35028ft 433kts
16-Feb-11 19:36 42.657658 -120.559959 170 35026ft 416kts
16-Feb-11 19:37 42.546676 -120.524169 169 35023ft 406kts
16-Feb-11 19:38 42.438972 -120.490648 169 35020ft 401kts
16-Feb-11 19:39 42.335530 -120.459867 170 35026ft 399kts
16-Feb-11 19:40 42.227436 -120.427538 170 35027ft 397kts
16-Feb-11 19:41 42.119817 -120.395465 170 35025ft 396kts
16-Feb-11 19:42 42.012432 -120.363573 169 35024ft 396kts
16-Feb-11 19:43 41.904948 -120.331763 169 35023ft 396kts
16-Feb-11 19:44 41.797252 -120.300000 169 35021ft 396kts
16-Feb-11 19:45 41.689854 -120.268433 169 35020ft 396kts
16-Feb-11 19:46 41.582034 -120.236879 169 35049ft 404kts
16-Feb-11 19:47 41.471393 -120.204568 168 35049ft 411kts
16-Feb-11 19:48 41.361074 -120.172472 168 35049ft 415kts
16-Feb-11 19:49 41.249351 -120.140086 168 35055ft 417kts
16-Feb-11 19:50 41.135751 -120.107267 168 35054ft 418kts
16-Feb-11 19:51 41.022111 -120.074530 168 35054ft 419kts
16-Feb-11 19:52 40.907954 -120.041760 168 35053ft 419kts
16-Feb-11 19:53 40.794072 -120.009201 168 35052ft 420kts
16-Feb-11 19:54 40.680117 -119.976762 168 35052ft 420kts
16-Feb-11 19:55 40.565787 -119.944328 168 35051ft 420kts
16-Feb-11 19:56 40.451933 -119.912143 168 35051ft 420kts
16-Feb-11 19:57 40.342079 -119.881196 168 35152ft 416kts
16-Feb-11 19:58 40.229412 -119.849562 167 35155ft 412kts
16-Feb-11 19:59 40.117880 -119.818351 167 35154ft 410kts
16-Feb-11 20:01 39.911111 -119.760734 171 35167ft 426kts
16-Feb-11 20:02 39.793850 -119.728248 172 35168ft 438kts
16-Feb-11 20:03 39.673795 -119.695090 172 35169ft 444kts
16-Feb-11 20:04 39.552564 -119.661720 171 35170ft 448kts
16-Feb-11 20:05 39.429799 -119.641100 177 35170ft 447kts
16-Feb-11 20:06 39.310765 -119.623810 177 35188ft 437kts
16-Feb-11 20:07 39.192713 -119.606734 175 35188ft 425kts
16-Feb-11 20:08 39.075874 -119.589854 174 35186ft 423kts
16-Feb-11 20:09 38.959161 -119.573053 174 35185ft 423kts
16-Feb-11 20:10 38.842773 -119.556359 173 35184ft 424kts
16-Feb-11 20:11 38.725843 -119.539646 173 35183ft 424kts
16-Feb-11 20:12 38.609359 -119.523023 174 35138ft 421kts
16-Feb-11 20:13 38.495117 -119.506807 175 35132ft 411kts
16-Feb-11 20:14 38.382332 -119.490858 175 35131ft 407kts
16-Feb-11 20:15 38.272712 -119.475402 176 35141ft 404kts
16-Feb-11 20:16 38.163390 -119.460032 177 35140ft 403kts
16-Feb-11 20:17 38.053237 -119.444812 177 35135ft 402kts
16-Feb-11 20:18 37.942036 -119.429212 178 35151ft 401kts
16-Feb-11 20:19 37.832008 -119.413879 180 35152ft 399kts
16-Feb-11 20:20 37.721632 -119.398564 181 35152ft 399kts
16-Feb-11 20:21 37.611124 -119.383265 182 35151ft 400kts
16-Feb-11 20:22 37.500907 -119.368046 183 35150ft 401kts
16-Feb-11 20:23 37.389873 -119.352757 183 35149ft 402kts
16-Feb-11 20:24 37.281822 -119.337920 183 35159ft 402kts
16-Feb-11 20:25 37.170890 -119.322732 183 35158ft 402kts
16-Feb-11 20:26 37.060328 -119.307638 183 35157ft 402kts
16-Feb-11 20:27 36.950962 -119.292928 180 35427ft 393kts
16-Feb-11 20:28 36.842505 -119.278118 175 35442ft 397kts
16-Feb-11 20:29 36.731348 -119.263021 174 35441ft 407kts
16-Feb-11 20:30 36.618967 -119.247701 175 35450ft 416kts
16-Feb-11 20:31 36.507573 -119.232841 177 35454ft 439kts
16-Feb-11 20:32 36.363489 -119.213547 176 35075ft 455kts
16-Feb-11 20:33 36.262391 -119.200031 175 35070ft 460kts
16-Feb-11 20:34 36.135036 -119.183055 175 35070ft 462kts
16-Feb-11 20:35 36.007664 -119.166134 175 35070ft 463kts
16-Feb-11 20:36 35.896870 -119.151406 175 35072ft 457kts
16-Feb-11 20:37 35.827356 -119.141740 182 35046ft 434kts
16-Feb-11 20:38 35.750412 -119.186160 213 35071ft 424kts
16-Feb-11 20:39 35.653896 -119.268621 214 35052ft 428kts
16-Feb-11 20:40 35.554535 -119.348455 214 35051ft 439kts
16-Feb-11 20:41 35.450456 -119.428803 214 34446ft 446kts
16-Feb-11 20:42 35.353863 -119.518485 223 33649ft 443kts
16-Feb-11 20:43 35.263066 -119.616535 223 32043ft 434kts
16-Feb-11 20:44 35.172391 -119.709905 205 30403ft 427kts
16-Feb-11 20:45 35.072186 -119.668323 119 28785ft 407kts
16-Feb-11 20:46 35.016392 -119.550896 132 27156ft 398kts
16-Feb-11 20:47 34.925404 -119.477410 144 25662ft 389kts
16-Feb-11 20:48 34.836945 -119.405423 145 24367ft 384kts
16-Feb-11 20:49 34.748165 -119.333328 146 23118ft 384kts
16-Feb-11 20:50 34.660278 -119.262203 147 21799ft 378kts
16-Feb-11 20:51 34.573906 -119.192453 147 20410ft 372kts
16-Feb-11 20:52 34.488195 -119.123400 149 19036ft 370kts
16-Feb-11 20:53 34.403517 -119.055392 150 17661ft 361kts
16-Feb-11 20:54 34.323325 -118.991154 151 16325ft 352kts
16-Feb-11 20:55 34.243390 -118.927250 150 14955ft 342kts
16-Feb-11 20:56 34.165864 -118.865403 150 13592ft 333kts
16-Feb-11 20:57 34.089795 -118.804850 150 12225ft 325kts
16-Feb-11 20:58 34.028999 -118.752463 127 11044ft 326kts
16-Feb-11 20:59 34.015599 -118.628863 92 9961ft 322kts
16-Feb-11 21:00 34.012550 -118.547212 92 9960ft 322kts
16-Feb-11 21:02 34.008027 -118.406985 90 9987ft 316kts
16-Feb-11 21:03 34.026413 -118.323769 74 8823ft 262kts
16-Feb-11 21:04 34.043782 -118.249913 74 6104ft 235kts
16-Feb-11 21:05 34.046120 -118.179015 148 3198ft 220kts
16-Feb-11 21:06 33.999276 -118.209783 203 2989ft 214kts
16-Feb-11 21:07 33.967448 -118.254770 262 2413ft 191kts
16-Feb-11 21:08 33.961969 -118.306022 263 1647ft 144kts
16-Feb-11 21:09 33.957475 -118.349924 263 1003ft 142kts
16-Feb-11 21:10 33.952896 -118.394473 263 297ft 141kts
16-Feb-11 21:11 33.950285 -118.417666 242 130ft 24kts
16-Feb-11 21:12 33.947257 -118.422579 231 130ft 10kts
16-Feb-11 21:13 33.945791 -118.423009 100 130ft 9kts
16-Feb-11 21:14 33.945787 -118.422982 100 130ft 0kts
16-Feb-11 21:15 33.945787 -118.422982 100 130ft 0kts
16-Feb-11 21:16 33.945787 -118.422982 100 130ft 0kts
16-Feb-11 21:17 33.945787 -118.422982 100 130ft 0kts
16-Feb-11 21:18 33.945787 -118.422982 100 130ft 0kts
16-Feb-11 21:19 33.945787 -118.422982 100 130ft 0kts
16-Feb-11 21:20 33.945787 -118.422982 100 130ft 0kts
16-Feb-11 21:21 33.945787 -118.422982 100 130ft 0kts
16-Feb-11 21:22 33.945787 -118.422982 100 130ft 0kts
16-Feb-11 21:23 33.945787 -118.422982 100 130ft 0kts
16-Feb-11 21:24 33.945787 -118.422982 100 130ft 0kts

Navigation Log

Ident Type
Flight plan parsing failed, navigation log unavailable